sensor_id;sensor_type;location;lat;lon;timestamp;pressure;altitude;pressure_sealevel;temperature;humidity
11329;BME280;5719;42.714;23.732;2023-07-29T00:01:35;94318.13;;;16.47;87.45
11329;BME280;5719;42.714;23.732;2023-07-29T00:04:03;94312.78;;;16.49;87.65
11329;BME280;5719;42.714;23.732;2023-07-29T00:06:30;94317.81;;;16.50;87.72
11329;BME280;5719;42.714;23.732;2023-07-29T00:08:57;94316.78;;;16.43;87.77
11329;BME280;5719;42.714;23.732;2023-07-29T00:11:25;94315.31;;;16.41;87.83
11329;BME280;5719;42.714;23.732;2023-07-29T00:13:52;94308.28;;;16.41;87.65
11329;BME280;5719;42.714;23.732;2023-07-29T00:16:20;94306.56;;;16.32;89.15
11329;BME280;5719;42.714;23.732;2023-07-29T00:18:48;94307.59;;;16.22;90.01
11329;BME280;5719;42.714;23.732;2023-07-29T00:21:15;94306.81;;;16.21;89.58
11329;BME280;5719;42.714;23.732;2023-07-29T00:23:41;94319.69;;;16.05;90.62
11329;BME280;5719;42.714;23.732;2023-07-29T00:26:08;94316.78;;;16.08;90.30
11329;BME280;5719;42.714;23.732;2023-07-29T00:28:37;94317.66;;;15.99;91.03
11329;BME280;5719;42.714;23.732;2023-07-29T00:31:03;94316.53;;;16.01;89.99
11329;BME280;5719;42.714;23.732;2023-07-29T00:33:31;94316.44;;;15.93;90.34
11329;BME280;5719;42.714;23.732;2023-07-29T00:35:57;94321.00;;;15.91;90.96
11329;BME280;5719;42.714;23.732;2023-07-29T00:38:27;94318.81;;;15.87;91.28
11329;BME280;5719;42.714;23.732;2023-07-29T00:40:54;94314.72;;;15.84;91.65
11329;BME280;5719;42.714;23.732;2023-07-29T00:43:20;94317.03;;;15.87;91.69
11329;BME280;5719;42.714;23.732;2023-07-29T00:45:49;94314.13;;;15.90;91.29
11329;BME280;5719;42.714;23.732;2023-07-29T00:48:16;94314.13;;;15.90;91.72
11329;BME280;5719;42.714;23.732;2023-07-29T00:50:43;94315.69;;;15.83;91.80
11329;BME280;5719;42.714;23.732;2023-07-29T00:53:10;94316.66;;;15.82;92.00
11329;BME280;5719;42.714;23.732;2023-07-29T00:55:37;94317.78;;;15.80;91.75
11329;BME280;5719;42.714;23.732;2023-07-29T00:58:04;94317.06;;;15.78;91.28
11329;BME280;5719;42.714;23.732;2023-07-29T01:00:31;94308.59;;;15.76;91.33
11329;BME280;5719;42.714;23.732;2023-07-29T01:02:59;94307.25;;;15.72;91.90
11329;BME280;5719;42.714;23.732;2023-07-29T01:05:30;94302.97;;;15.70;92.46
11329;BME280;5719;42.714;23.732;2023-07-29T01:08:02;94300.97;;;15.64;92.34
11329;BME280;5719;42.714;23.732;2023-07-29T01:10:39;94291.44;;;15.55;92.57
11329;BME280;5719;42.714;23.732;2023-07-29T01:13:10;94298.66;;;15.61;92.56
11329;BME280;5719;42.714;23.732;2023-07-29T01:15:44;94298.84;;;15.50;93.35
11329;BME280;5719;42.714;23.732;2023-07-29T01:18:18;94302.78;;;15.45;93.56
11329;BME280;5719;42.714;23.732;2023-07-29T01:20:47;94303.91;;;15.42;93.47
11329;BME280;5719;42.714;23.732;2023-07-29T01:25:44;94295.44;;;15.40;93.30
11329;BME280;5719;42.714;23.732;2023-07-29T01:28:11;94292.84;;;15.31;94.02
11329;BME280;5719;42.714;23.732;2023-07-29T01:30:40;94297.69;;;15.26;94.58
11329;BME280;5719;42.714;23.732;2023-07-29T01:33:15;94308.53;;;15.21;94.24
11329;BME280;5719;42.714;23.732;2023-07-29T01:35:46;94298.41;;;15.18;94.74
11329;BME280;5719;42.714;23.732;2023-07-29T01:38:17;94312.94;;;15.11;95.76
11329;BME280;5719;42.714;23.732;2023-07-29T01:40:46;94308.28;;;15.05;96.56
11329;BME280;5719;42.714;23.732;2023-07-29T01:43:15;94303.47;;;15.10;95.07
11329;BME280;5719;42.714;23.732;2023-07-29T01:45:44;94309.50;;;15.10;95.05
11329;BME280;5719;42.714;23.732;2023-07-29T01:48:11;94307.88;;;15.09;95.13
11329;BME280;5719;42.714;23.732;2023-07-29T01:50:37;94297.59;;;15.08;95.19
11329;BME280;5719;42.714;23.732;2023-07-29T01:53:04;94301.84;;;15.09;95.49
11329;BME280;5719;42.714;23.732;2023-07-29T01:55:31;94299.22;;;15.09;95.44
11329;BME280;5719;42.714;23.732;2023-07-29T01:57:59;94295.81;;;15.08;94.83
11329;BME280;5719;42.714;23.732;2023-07-29T02:00:26;94300.06;;;15.09;95.05
11329;BME280;5719;42.714;23.732;2023-07-29T02:02:53;94292.66;;;15.05;94.55
11329;BME280;5719;42.714;23.732;2023-07-29T02:05:20;94304.06;;;15.04;95.05
11329;BME280;5719;42.714;23.732;2023-07-29T02:07:47;94302.28;;;14.95;95.76
11329;BME280;5719;42.714;23.732;2023-07-29T02:10:14;94300.91;;;14.91;95.05
11329;BME280;5719;42.714;23.732;2023-07-29T02:12:41;94308.84;;;14.99;94.69
11329;BME280;5719;42.714;23.732;2023-07-29T02:15:09;94304.88;;;14.95;94.57
11329;BME280;5719;42.714;23.732;2023-07-29T02:17:36;94307.66;;;14.84;94.99
11329;BME280;5719;42.714;23.732;2023-07-29T02:20:04;94311.63;;;14.68;96.03
11329;BME280;5719;42.714;23.732;2023-07-29T02:22:31;94298.78;;;14.57;96.05
11329;BME280;5719;42.714;23.732;2023-07-29T02:24:58;94313.84;;;14.54;96.90
11329;BME280;5719;42.714;23.732;2023-07-29T02:27:25;94307.69;;;14.55;96.92
11329;BME280;5719;42.714;23.732;2023-07-29T02:29:52;94317.41;;;14.53;97.24
11329;BME280;5719;42.714;23.732;2023-07-29T02:32:21;94301.97;;;14.42;98.15
11329;BME280;5719;42.714;23.732;2023-07-29T02:34:48;94291.97;;;14.37;97.96
11329;BME280;5719;42.714;23.732;2023-07-29T02:37:15;94319.47;;;14.49;98.10
11329;BME280;5719;42.714;23.732;2023-07-29T02:39:42;94316.06;;;14.49;97.86
11329;BME280;5719;42.714;23.732;2023-07-29T02:42:09;94304.81;;;14.48;98.07
11329;BME280;5719;42.714;23.732;2023-07-29T02:44:36;94311.53;;;14.51;97.91
11329;BME280;5719;42.714;23.732;2023-07-29T02:47:03;94312.75;;;14.37;98.52
11329;BME280;5719;42.714;23.732;2023-07-29T02:49:31;94317.41;;;14.43;98.53
11329;BME280;5719;42.714;23.732;2023-07-29T02:51:58;94319.72;;;14.46;97.68
11329;BME280;5719;42.714;23.732;2023-07-29T02:54:25;94324.69;;;14.49;97.50
11329;BME280;5719;42.714;23.732;2023-07-29T02:56:52;94319.47;;;14.49;96.89
11329;BME280;5719;42.714;23.732;2023-07-29T02:59:19;94319.19;;;14.52;97.28
11329;BME280;5719;42.714;23.732;2023-07-29T03:01:46;94322.47;;;14.54;96.67
11329;BME280;5719;42.714;23.732;2023-07-29T03:04:13;94323.69;;;14.50;96.11
11329;BME280;5719;42.714;23.732;2023-07-29T03:06:41;94327.00;;;14.52;95.80
11329;BME280;5719;42.714;23.732;2023-07-29T03:09:08;94327.94;;;14.51;95.60
11329;BME280;5719;42.714;23.732;2023-07-29T03:11:35;94324.94;;;14.46;95.52
11329;BME280;5719;42.714;23.732;2023-07-29T03:14:02;94316.75;;;14.41;95.61
11329;BME280;5719;42.714;23.732;2023-07-29T03:16:29;94325.47;;;14.31;96.27
11329;BME280;5719;42.714;23.732;2023-07-29T03:18:56;94327.50;;;14.27;96.81
11329;BME280;5719;42.714;23.732;2023-07-29T03:21:23;94325.88;;;14.26;96.09
11329;BME280;5719;42.714;23.732;2023-07-29T03:23:51;94310.66;;;14.12;96.60
11329;BME280;5719;42.714;23.732;2023-07-29T03:26:18;94326.94;;;14.14;96.41
11329;BME280;5719;42.714;23.732;2023-07-29T03:28:45;94343.25;;;14.16;96.94
11329;BME280;5719;42.714;23.732;2023-07-29T03:31:12;94342.53;;;14.14;96.63
11329;BME280;5719;42.714;23.732;2023-07-29T03:33:39;94343.75;;;13.91;98.73
11329;BME280;5719;42.714;23.732;2023-07-29T03:36:06;94328.53;;;13.86;99.11
11329;BME280;5719;42.714;23.732;2023-07-29T03:38:33;94340.44;;;13.89;100.00
11329;BME280;5719;42.714;23.732;2023-07-29T03:41:02;94347.00;;;13.93;100.00
11329;BME280;5719;42.714;23.732;2023-07-29T03:43:28;94345.63;;;13.89;100.00
11329;BME280;5719;42.714;23.732;2023-07-29T03:45:55;94344.13;;;13.86;100.00
11329;BME280;5719;42.714;23.732;2023-07-29T03:48:22;94348.66;;;13.84;100.00
11329;BME280;5719;42.714;23.732;2023-07-29T03:50:49;94331.94;;;13.77;100.00
11329;BME280;5719;42.714;23.732;2023-07-29T03:53:16;94350.72;;;13.90;100.00
11329;BME280;5719;42.714;23.732;2023-07-29T03:55:43;94344.84;;;13.98;100.00
11329;BME280;5719;42.714;23.732;2023-07-29T03:58:12;94341.31;;;13.99;100.00
11329;BME280;5719;42.714;23.732;2023-07-29T04:00:39;94343.19;;;14.06;100.00
11329;BME280;5719;42.714;23.732;2023-07-29T04:03:05;94340.47;;;13.98;100.00
11329;BME280;5719;42.714;23.732;2023-07-29T04:05:32;94348.41;;;13.97;100.00
11329;BME280;5719;42.714;23.732;2023-07-29T04:07:59;94331.69;;;13.90;100.00
11329;BME280;5719;42.714;23.732;2023-07-29T04:10:26;94332.38;;;13.92;100.00
11329;BME280;5719;42.714;23.732;2023-07-29T04:12:53;94337.06;;;13.98;100.00
11329;BME280;5719;42.714;23.732;2023-07-29T04:15:21;94348.41;;;14.06;100.00
11329;BME280;5719;42.714;23.732;2023-07-29T04:17:48;94339.09;;;14.13;100.00
11329;BME280;5719;42.714;23.732;2023-07-29T04:20:15;94345.84;;;14.16;100.00
11329;BME280;5719;42.714;23.732;2023-07-29T04:22:42;94335.84;;;14.21;100.00
11329;BME280;5719;42.714;23.732;2023-07-29T04:25:09;94335.50;;;14.35;100.00
11329;BME280;5719;42.714;23.732;2023-07-29T04:27:36;94320.56;;;14.47;100.00
11329;BME280;5719;42.714;23.732;2023-07-29T04:30:03;94333.41;;;14.58;100.00
11329;BME280;5719;42.714;23.732;2023-07-29T04:32:32;94335.75;;;14.70;100.00
11329;BME280;5719;42.714;23.732;2023-07-29T04:35:00;94330.78;;;14.87;100.00
11329;BME280;5719;42.714;23.732;2023-07-29T04:37:26;94330.63;;;14.98;100.00
11329;BME280;5719;42.714;23.732;2023-07-29T04:39:53;94328.84;;;15.08;100.00
11329;BME280;5719;42.714;23.732;2023-07-29T04:42:20;94334.56;;;15.21;100.00
11329;BME280;5719;42.714;23.732;2023-07-29T04:44:47;94340.13;;;15.36;100.00
11329;BME280;5719;42.714;23.732;2023-07-29T04:47:14;94332.44;;;15.53;100.00
11329;BME280;5719;42.714;23.732;2023-07-29T04:49:42;94337.25;;;15.76;100.00
11329;BME280;5719;42.714;23.732;2023-07-29T04:52:09;94335.53;;;15.94;99.81
11329;BME280;5719;42.714;23.732;2023-07-29T04:54:37;94329.72;;;16.17;99.04
11329;BME280;5719;42.714;23.732;2023-07-29T04:57:04;94338.78;;;16.41;98.93
11329;BME280;5719;42.714;23.732;2023-07-29T04:59:31;94333.28;;;16.61;96.76
11329;BME280;5719;42.714;23.732;2023-07-29T05:01:58;94350.06;;;16.77;92.59
11329;BME280;5719;42.714;23.732;2023-07-29T05:04:25;94348.56;;;16.92;92.63
11329;BME280;5719;42.714;23.732;2023-07-29T05:06:53;94348.00;;;17.06;89.62
11329;BME280;5719;42.714;23.732;2023-07-29T05:09:20;94351.06;;;17.19;89.11
11329;BME280;5719;42.714;23.732;2023-07-29T05:11:47;94353.44;;;17.30;88.28
11329;BME280;5719;42.714;23.732;2023-07-29T05:14:15;94359.38;;;17.40;92.31
11329;BME280;5719;42.714;23.732;2023-07-29T05:16:42;94348.47;;;17.53;91.54
11329;BME280;5719;42.714;23.732;2023-07-29T05:19:10;94357.91;;;17.72;90.80
11329;BME280;5719;42.714;23.732;2023-07-29T05:21:38;94363.56;;;17.93;89.69
11329;BME280;5719;42.714;23.732;2023-07-29T05:24:08;94369.88;;;18.16;91.50
11329;BME280;5719;42.714;23.732;2023-07-29T05:26:35;94367.34;;;18.32;88.90
11329;BME280;5719;42.714;23.732;2023-07-29T05:29:02;94364.28;;;18.53;87.97
11329;BME280;5719;42.714;23.732;2023-07-29T05:31:29;94358.94;;;18.79;86.23
11329;BME280;5719;42.714;23.732;2023-07-29T05:33:56;94360.09;;;19.00;83.63
11329;BME280;5719;42.714;23.732;2023-07-29T05:36:23;94359.44;;;19.23;81.57
11329;BME280;5719;42.714;23.732;2023-07-29T05:38:50;94345.97;;;19.34;81.66
11329;BME280;5719;42.714;23.732;2023-07-29T05:41:20;94360.53;;;19.61;78.68
11329;BME280;5719;42.714;23.732;2023-07-29T05:43:47;94368.19;;;19.78;78.31
11329;BME280;5719;42.714;23.732;2023-07-29T05:46:14;94355.03;;;19.94;77.88
11329;BME280;5719;42.714;23.732;2023-07-29T05:48:41;94372.31;;;20.20;73.41
11329;BME280;5719;42.714;23.732;2023-07-29T05:51:08;94369.13;;;20.40;71.57
11329;BME280;5719;42.714;23.732;2023-07-29T05:53:35;94377.50;;;20.67;71.28
11329;BME280;5719;42.714;23.732;2023-07-29T05:56:02;94368.50;;;20.84;68.67
11329;BME280;5719;42.714;23.732;2023-07-29T05:58:30;94358.81;;;21.07;67.22
11329;BME280;5719;42.714;23.732;2023-07-29T06:00:57;94377.41;;;21.28;66.79
11329;BME280;5719;42.714;23.732;2023-07-29T06:03:26;94373.72;;;21.37;67.88
11329;BME280;5719;42.714;23.732;2023-07-29T06:05:54;94360.59;;;21.52;68.65
11329;BME280;5719;42.714;23.732;2023-07-29T06:08:21;94373.16;;;21.79;65.83
11329;BME280;5719;42.714;23.732;2023-07-29T06:10:48;94376.00;;;22.07;63.65
11329;BME280;5719;42.714;23.732;2023-07-29T06:13:15;94377.53;;;22.31;62.07
11329;BME280;5719;42.714;23.732;2023-07-29T06:15:43;94376.41;;;22.55;61.97
11329;BME280;5719;42.714;23.732;2023-07-29T06:18:10;94372.47;;;22.80;60.86
11329;BME280;5719;42.714;23.732;2023-07-29T06:20:37;94371.03;;;22.99;59.67
11329;BME280;5719;42.714;23.732;2023-07-29T06:23:04;94371.53;;;23.09;59.19
11329;BME280;5719;42.714;23.732;2023-07-29T06:25:31;94371.69;;;23.28;59.05
11329;BME280;5719;42.714;23.732;2023-07-29T06:27:58;94365.22;;;23.52;58.80
11329;BME280;5719;42.714;23.732;2023-07-29T06:30:25;94367.56;;;23.68;58.85
11329;BME280;5719;42.714;23.732;2023-07-29T06:32:53;94370.94;;;23.83;58.39
11329;BME280;5719;42.714;23.732;2023-07-29T06:35:20;94360.47;;;23.97;56.28
11329;BME280;5719;42.714;23.732;2023-07-29T06:37:47;94348.53;;;24.07;56.46
11329;BME280;5719;42.714;23.732;2023-07-29T06:40:14;94355.59;;;24.34;57.46
11329;BME280;5719;42.714;23.732;2023-07-29T06:42:41;94362.41;;;24.57;55.91
11329;BME280;5719;42.714;23.732;2023-07-29T06:45:09;94363.47;;;24.69;55.39
11329;BME280;5719;42.714;23.732;2023-07-29T06:47:37;94361.28;;;24.85;55.00
11329;BME280;5719;42.714;23.732;2023-07-29T06:50:05;94343.00;;;24.97;54.13
11329;BME280;5719;42.714;23.732;2023-07-29T06:52:32;94351.59;;;25.12;54.58
11329;BME280;5719;42.714;23.732;2023-07-29T06:54:59;94351.78;;;25.17;52.53
11329;BME280;5719;42.714;23.732;2023-07-29T06:57:26;94357.50;;;25.21;51.57
11329;BME280;5719;42.714;23.732;2023-07-29T06:59:53;94353.44;;;25.31;50.11
11329;BME280;5719;42.714;23.732;2023-07-29T07:02:20;94348.56;;;25.42;49.85
11329;BME280;5719;42.714;23.732;2023-07-29T07:04:47;94348.34;;;25.50;49.89
11329;BME280;5719;42.714;23.732;2023-07-29T07:07:16;94343.88;;;25.70;50.84
11329;BME280;5719;42.714;23.732;2023-07-29T07:09:43;94340.22;;;25.71;49.09
11329;BME280;5719;42.714;23.732;2023-07-29T07:12:10;94339.41;;;25.64;49.22
11329;BME280;5719;42.714;23.732;2023-07-29T07:14:37;94340.19;;;25.84;48.04
11329;BME280;5719;42.714;23.732;2023-07-29T07:17:04;94343.63;;;26.04;48.09
11329;BME280;5719;42.714;23.732;2023-07-29T07:19:31;94337.84;;;26.33;46.95
11329;BME280;5719;42.714;23.732;2023-07-29T07:21:58;94340.63;;;26.52;46.39
11329;BME280;5719;42.714;23.732;2023-07-29T07:24:26;94342.81;;;26.61;45.67
11329;BME280;5719;42.714;23.732;2023-07-29T07:26:53;94344.78;;;26.79;46.78
11329;BME280;5719;42.714;23.732;2023-07-29T07:29:20;94343.06;;;26.98;45.79
11329;BME280;5719;42.714;23.732;2023-07-29T07:31:50;94337.25;;;27.14;45.29
11329;BME280;5719;42.714;23.732;2023-07-29T07:34:18;94341.16;;;27.36;43.15
11329;BME280;5719;42.714;23.732;2023-07-29T07:36:45;94336.16;;;27.53;43.54
11329;BME280;5719;42.714;23.732;2023-07-29T07:39:11;94341.66;;;27.76;43.32
11329;BME280;5719;42.714;23.732;2023-07-29T07:41:40;94337.16;;;28.01;42.76
11329;BME280;5719;42.714;23.732;2023-07-29T07:44:07;94349.75;;;28.31;40.56
11329;BME280;5719;42.714;23.732;2023-07-29T07:46:34;94349.06;;;28.53;39.03
11329;BME280;5719;42.714;23.732;2023-07-29T07:49:00;94350.69;;;28.54;39.81
11329;BME280;5719;42.714;23.732;2023-07-29T07:51:27;94352.09;;;28.20;40.42
11329;BME280;5719;42.714;23.732;2023-07-29T07:53:54;94345.31;;;28.24;40.19
11329;BME280;5719;42.714;23.732;2023-07-29T07:56:21;94352.41;;;28.49;39.86
11329;BME280;5719;42.714;23.732;2023-07-29T07:58:49;94347.06;;;28.67;38.90
11329;BME280;5719;42.714;23.732;2023-07-29T08:01:16;94353.06;;;28.62;38.87
11329;BME280;5719;42.714;23.732;2023-07-29T08:03:43;94341.16;;;28.65;38.67
11329;BME280;5719;42.714;23.732;2023-07-29T08:06:10;94347.28;;;28.84;39.96
11329;BME280;5719;42.714;23.732;2023-07-29T08:08:37;94340.06;;;29.02;40.01
11329;BME280;5719;42.714;23.732;2023-07-29T08:11:04;94337.66;;;29.12;39.50
11329;BME280;5719;42.714;23.732;2023-07-29T08:13:31;94334.97;;;29.01;38.83
11329;BME280;5719;42.714;23.732;2023-07-29T08:15:59;94337.47;;;29.14;39.31
11329;BME280;5719;42.714;23.732;2023-07-29T08:18:26;94346.34;;;29.38;39.70
11329;BME280;5719;42.714;23.732;2023-07-29T08:20:53;94338.50;;;29.66;38.96
11329;BME280;5719;42.714;23.732;2023-07-29T08:23:21;94340.69;;;29.81;37.03
11329;BME280;5719;42.714;23.732;2023-07-29T08:25:52;94346.06;;;29.92;36.97
11329;BME280;5719;42.714;23.732;2023-07-29T08:28:19;94343.88;;;30.12;35.90
11329;BME280;5719;42.714;23.732;2023-07-29T08:30:46;94339.31;;;30.36;36.52
11329;BME280;5719;42.714;23.732;2023-07-29T08:33:15;94328.28;;;30.56;36.07
11329;BME280;5719;42.714;23.732;2023-07-29T08:35:42;94335.53;;;30.72;37.67
11329;BME280;5719;42.714;23.732;2023-07-29T08:38:10;94339.53;;;30.86;34.97
11329;BME280;5719;42.714;23.732;2023-07-29T08:40:41;94333.72;;;30.49;34.76
11329;BME280;5719;42.714;23.732;2023-07-29T08:43:09;94330.91;;;30.04;36.21
11329;BME280;5719;42.714;23.732;2023-07-29T08:45:38;94335.50;;;30.21;36.04
11329;BME280;5719;42.714;23.732;2023-07-29T08:48:08;94324.22;;;30.53;37.53
11329;BME280;5719;42.714;23.732;2023-07-29T08:50:38;94328.88;;;30.86;35.74
11329;BME280;5719;42.714;23.732;2023-07-29T08:53:06;94330.59;;;31.21;34.32
11329;BME280;5719;42.714;23.732;2023-07-29T08:55:33;94328.38;;;31.46;33.51
11329;BME280;5719;42.714;23.732;2023-07-29T08:58:01;94318.34;;;31.53;33.59
11329;BME280;5719;42.714;23.732;2023-07-29T09:00:29;94317.78;;;31.51;33.13
11329;BME280;5719;42.714;23.732;2023-07-29T09:02:56;94315.31;;;31.49;32.77
11329;BME280;5719;42.714;23.732;2023-07-29T09:05:28;94304.75;;;31.54;33.43
11329;BME280;5719;42.714;23.732;2023-07-29T09:07:56;94290.06;;;31.74;34.01
11329;BME280;5719;42.714;23.732;2023-07-29T09:10:25;94292.03;;;31.62;33.77
11329;BME280;5719;42.714;23.732;2023-07-29T09:12:53;94300.66;;;31.35;33.61
11329;BME280;5719;42.714;23.732;2023-07-29T09:15:27;94296.53;;;31.28;33.68
11329;BME280;5719;42.714;23.732;2023-07-29T09:17:55;94291.09;;;31.23;34.04
11329;BME280;5719;42.714;23.732;2023-07-29T09:20:24;94296.59;;;31.16;33.73
11329;BME280;5719;42.714;23.732;2023-07-29T09:22:51;94290.66;;;30.97;34.17
11329;BME280;5719;42.714;23.732;2023-07-29T09:25:24;94288.19;;;30.67;34.71
11329;BME280;5719;42.714;23.732;2023-07-29T09:27:51;94287.94;;;30.52;35.88
11329;BME280;5719;42.714;23.732;2023-07-29T09:30:18;94285.47;;;30.79;35.70
11329;BME280;5719;42.714;23.732;2023-07-29T09:32:45;94285.50;;;31.07;35.10
11329;BME280;5719;42.714;23.732;2023-07-29T09:35:12;94284.38;;;31.20;34.57
11329;BME280;5719;42.714;23.732;2023-07-29T09:37:39;94281.16;;;31.35;35.28
11329;BME280;5719;42.714;23.732;2023-07-29T09:40:13;94283.72;;;31.30;34.33
11329;BME280;5719;42.714;23.732;2023-07-29T09:42:47;94267.06;;;30.94;35.47
11329;BME280;5719;42.714;23.732;2023-07-29T09:45:20;94277.19;;;31.21;35.20
11329;BME280;5719;42.714;23.732;2023-07-29T09:47:47;94273.34;;;31.62;35.43
11329;BME280;5719;42.714;23.732;2023-07-29T09:50:14;94280.22;;;31.96;34.84
11329;BME280;5719;42.714;23.732;2023-07-29T09:52:41;94278.63;;;32.12;34.00
11329;BME280;5719;42.714;23.732;2023-07-29T09:55:10;94274.44;;;31.82;32.98
11329;BME280;5719;42.714;23.732;2023-07-29T09:57:39;94279.53;;;31.84;33.77
11329;BME280;5719;42.714;23.732;2023-07-29T10:00:11;94269.59;;;31.79;34.85
11329;BME280;5719;42.714;23.732;2023-07-29T10:02:39;94264.00;;;31.47;33.71
11329;BME280;5719;42.714;23.732;2023-07-29T10:05:07;94262.47;;;31.68;34.35
11329;BME280;5719;42.714;23.732;2023-07-29T10:07:36;94267.13;;;31.94;32.83
11329;BME280;5719;42.714;23.732;2023-07-29T10:10:04;94257.34;;;32.22;33.05
11329;BME280;5719;42.714;23.732;2023-07-29T10:12:32;94265.78;;;32.35;32.61
11329;BME280;5719;42.714;23.732;2023-07-29T10:15:00;94263.63;;;32.32;33.23
11329;BME280;5719;42.714;23.732;2023-07-29T10:17:29;94262.75;;;32.48;33.85
11329;BME280;5719;42.714;23.732;2023-07-29T10:19:56;94260.31;;;32.69;32.53
11329;BME280;5719;42.714;23.732;2023-07-29T10:22:26;94253.94;;;32.96;33.23
11329;BME280;5719;42.714;23.732;2023-07-29T10:24:59;94254.72;;;33.24;31.56
11329;BME280;5719;42.714;23.732;2023-07-29T10:27:27;94261.78;;;33.35;32.82
11329;BME280;5719;42.714;23.732;2023-07-29T10:29:55;94254.13;;;32.90;32.43
11329;BME280;5719;42.714;23.732;2023-07-29T10:32:25;94246.28;;;32.83;32.56
11329;BME280;5719;42.714;23.732;2023-07-29T10:34:54;94239.28;;;32.55;32.28
11329;BME280;5719;42.714;23.732;2023-07-29T10:37:22;94242.19;;;33.02;32.36
11329;BME280;5719;42.714;23.732;2023-07-29T10:39:54;94233.28;;;33.24;31.66
11329;BME280;5719;42.714;23.732;2023-07-29T10:42:22;94227.13;;;33.23;31.34
11329;BME280;5719;42.714;23.732;2023-07-29T10:44:52;94230.38;;;33.25;30.63
11329;BME280;5719;42.714;23.732;2023-07-29T10:47:21;94196.38;;;33.31;32.23
11329;BME280;5719;42.714;23.732;2023-07-29T10:49:50;94234.19;;;33.66;30.51
11329;BME280;5719;42.714;23.732;2023-07-29T10:52:40;94230.28;;;33.84;30.61
11329;BME280;5719;42.714;23.732;2023-07-29T10:55:23;94215.16;;;34.15;29.84
11329;BME280;5719;42.714;23.732;2023-07-29T10:57:51;94225.16;;;34.24;30.88
11329;BME280;5719;42.714;23.732;2023-07-29T11:00:20;94217.72;;;34.52;30.67
11329;BME280;5719;42.714;23.732;2023-07-29T11:02:59;94222.28;;;34.61;29.93
11329;BME280;5719;42.714;23.732;2023-07-29T11:05:26;94212.69;;;34.70;28.24
11329;BME280;5719;42.714;23.732;2023-07-29T11:07:55;94186.84;;;34.49;29.54
11329;BME280;5719;42.714;23.732;2023-07-29T11:10:22;94203.81;;;34.70;29.71
11329;BME280;5719;42.714;23.732;2023-07-29T11:12:50;94209.16;;;34.60;28.66
11329;BME280;5719;42.714;23.732;2023-07-29T11:15:20;94207.88;;;34.77;29.55
11329;BME280;5719;42.714;23.732;2023-07-29T11:17:50;94196.81;;;34.69;29.20
11329;BME280;5719;42.714;23.732;2023-07-29T11:20:19;94194.38;;;34.62;28.72
11329;BME280;5719;42.714;23.732;2023-07-29T11:22:47;94196.78;;;33.96;29.07
11329;BME280;5719;42.714;23.732;2023-07-29T11:25:17;94205.41;;;34.04;29.84
11329;BME280;5719;42.714;23.732;2023-07-29T11:27:45;94199.09;;;34.20;28.85
11329;BME280;5719;42.714;23.732;2023-07-29T11:30:13;94201.28;;;34.43;29.62
11329;BME280;5719;42.714;23.732;2023-07-29T11:32:41;94204.50;;;34.40;28.51
11329;BME280;5719;42.714;23.732;2023-07-29T11:35:10;94197.50;;;34.29;28.58
11329;BME280;5719;42.714;23.732;2023-07-29T11:37:41;94188.72;;;34.59;29.00
11329;BME280;5719;42.714;23.732;2023-07-29T11:40:09;94185.06;;;34.90;29.00
11329;BME280;5719;42.714;23.732;2023-07-29T11:42:38;94187.13;;;34.53;27.27
11329;BME280;5719;42.714;23.732;2023-07-29T11:45:06;94182.38;;;34.13;27.58
11329;BME280;5719;42.714;23.732;2023-07-29T11:47:35;94181.13;;;34.30;28.17
11329;BME280;5719;42.714;23.732;2023-07-29T11:50:03;94178.03;;;34.74;27.61
11329;BME280;5719;42.714;23.732;2023-07-29T11:52:31;94174.31;;;34.95;28.41
11329;BME280;5719;42.714;23.732;2023-07-29T11:55:00;94164.63;;;34.99;27.17
11329;BME280;5719;42.714;23.732;2023-07-29T11:57:28;94168.41;;;35.08;27.67
11329;BME280;5719;42.714;23.732;2023-07-29T11:59:56;94168.44;;;35.13;26.63
11329;BME280;5719;42.714;23.732;2023-07-29T12:02:24;94169.19;;;34.99;26.27
11329;BME280;5719;42.714;23.732;2023-07-29T12:04:52;94171.38;;;35.17;27.27
11329;BME280;5719;42.714;23.732;2023-07-29T12:07:19;94164.09;;;35.48;26.77
11329;BME280;5719;42.714;23.732;2023-07-29T12:09:47;94158.44;;;35.69;27.97
11329;BME280;5719;42.714;23.732;2023-07-29T12:12:14;94146.66;;;35.25;27.41
11329;BME280;5719;42.714;23.732;2023-07-29T12:14:44;94158.69;;;35.58;27.92
11329;BME280;5719;42.714;23.732;2023-07-29T12:17:14;94156.25;;;35.71;27.92
11329;BME280;5719;42.714;23.732;2023-07-29T12:19:42;94161.25;;;36.03;28.51
11329;BME280;5719;42.714;23.732;2023-07-29T12:22:10;94156.06;;;36.32;28.37
11329;BME280;5719;42.714;23.732;2023-07-29T12:24:39;94156.03;;;36.42;27.88
11329;BME280;5719;42.714;23.732;2023-07-29T12:27:11;94154.41;;;36.41;27.39
11329;BME280;5719;42.714;23.732;2023-07-29T12:29:42;94146.00;;;35.88;27.84
11329;BME280;5719;42.714;23.732;2023-07-29T12:32:10;94144.75;;;36.30;28.43
11329;BME280;5719;42.714;23.732;2023-07-29T12:34:38;94154.22;;;36.27;29.68
11329;BME280;5719;42.714;23.732;2023-07-29T12:37:06;94143.69;;;36.31;29.55
11329;BME280;5719;42.714;23.732;2023-07-29T12:39:35;94137.44;;;36.41;27.59
11329;BME280;5719;42.714;23.732;2023-07-29T12:42:03;94146.25;;;36.56;27.88
11329;BME280;5719;42.714;23.732;2023-07-29T12:44:32;94154.34;;;36.56;27.42
11329;BME280;5719;42.714;23.732;2023-07-29T12:47:00;94155.59;;;36.69;28.70
11329;BME280;5719;42.714;23.732;2023-07-29T12:49:28;94156.28;;;36.90;27.88
11329;BME280;5719;42.714;23.732;2023-07-29T12:51:56;94158.91;;;36.61;27.97
11329;BME280;5719;42.714;23.732;2023-07-29T12:54:24;94153.63;;;36.84;26.96
11329;BME280;5719;42.714;23.732;2023-07-29T12:56:51;94143.50;;;37.05;26.95
11329;BME280;5719;42.714;23.732;2023-07-29T12:59:18;94158.69;;;37.30;27.91
11329;BME280;5719;42.714;23.732;2023-07-29T13:01:45;94149.06;;;37.19;26.45
11329;BME280;5719;42.714;23.732;2023-07-29T13:04:12;94158.38;;;36.98;26.58
11329;BME280;5719;42.714;23.732;2023-07-29T13:06:39;94154.63;;;36.94;27.16